Time;durP1;ratioP1;P1;durP2;ratioP2;P2;SDS_P1;SDS_P2;PMS_P1;PMS_P2;Temp;Humidity;BMP_temperature;BMP_pressure;BME280_temperature;BME280_humidity;BME280_pressure;Samples;Min_cycle;Max_cycle;Signal;HPM_P1;HPM_P2
2022/11/22 00:02:12;;;;;;;;;11.00;9.00;;;;;20.00;51.07;99872.22;105739;1297;18584;-64
2022/11/22 00:04:39;;;;;;;;;9.00;8.00;;;;;19.99;51.29;99875.69;105716;1271;19370;-66
2022/11/22 00:07:06;;;;;;;;;10.00;9.00;;;;;20.00;50.94;99877.45;105705;1297;19029;-66
2022/11/22 00:09:34;;;;;;;;;11.00;10.00;;;;;19.99;51.02;99876.40;105651;1293;18923;-66
2022/11/22 00:12:01;;;;;;;;;12.00;11.00;;;;;20.00;51.22;99880.55;105692;1295;19499;-66
2022/11/22 00:14:29;;;;;;;;;10.50;8.00;;;;;20.00;51.02;99885.58;105680;1297;18494;-66
2022/11/22 00:16:56;;;;;;;;;10.00;10.00;;;;;19.99;50.90;99886.06;105649;1289;142848;-65
2022/11/22 00:19:24;;;;;;;;;11.50;10.50;;;;;19.99;51.11;99889.53;105668;1297;19312;-66
2022/11/22 00:21:51;;;;;;;;;10.00;10.00;;;;;19.99;51.00;99891.88;105673;1279;18496;-66
2022/11/22 00:24:19;;;;;;;;;10.50;10.00;;;;;20.00;50.93;99891.09;105662;1287;18908;-64
2022/11/22 00:26:46;;;;;;;;;11.00;8.00;;;;;19.97;50.98;99887.38;105652;1298;19315;-63
2022/11/22 00:29:14;;;;;;;;;14.00;11.00;;;;;19.97;50.98;99894.24;105728;1288;21916;-68
2022/11/22 00:31:42;;;;;;;;;11.00;10.00;;;;;19.98;50.87;99907.63;105682;1297;18527;-66
2022/11/22 00:34:09;;;;;;;;;11.00;10.00;;;;;19.98;50.80;99918.31;105707;1297;19311;-65
2022/11/22 00:36:37;;;;;;;;;10.00;8.00;;;;;19.98;50.95;99921.02;105669;1279;23026;-63
2022/11/22 00:39:04;;;;;;;;;9.00;8.00;;;;;19.97;50.92;99918.95;105659;1297;18829;-66
2022/11/22 00:41:32;;;;;;;;;8.00;8.00;;;;;19.97;50.89;99912.02;105694;1279;19526;-66
2022/11/22 00:43:59;;;;;;;;;;;;;;;19.97;50.92;99914.91;105711;1296;18525;-65
2022/11/22 00:46:27;;;;;;;;;8.00;8.00;;;;;19.97;50.70;99915.13;105691;1297;18174;-66
2022/11/22 00:48:54;;;;;;;;;8.00;8.00;;;;;19.98;50.89;99922.70;105702;1295;19304;-66
2022/11/22 00:51:21;;;;;;;;;8.00;8.00;;;;;19.97;50.69;99928.79;105647;1281;24081;-66
2022/11/22 00:53:49;;;;;;;;;12.00;11.00;;;;;19.96;50.76;99926.32;105696;1297;18553;-66
2022/11/22 00:56:16;;;;;;;;;10.00;8.00;;;;;19.96;50.53;99925.19;105699;1290;19355;-67
2022/11/22 00:58:44;;;;;;;;;12.00;11.00;;;;;19.97;50.89;99930.79;105731;1301;18512;-68
2022/11/22 01:01:11;;;;;;;;;17.00;11.00;;;;;19.96;50.49;99933.93;105668;1296;18709;-66
2022/11/22 01:03:38;;;;;;;;;11.50;8.00;;;;;19.96;50.87;99931.93;105699;1287;20950;-65
2022/11/22 01:06:06;;;;;;;;;11.00;10.00;;;;;19.96;50.56;99930.54;105670;1280;18506;-66
2022/11/22 01:08:33;;;;;;;;;10.00;9.00;;;;;19.95;50.64;99929.86;105662;1297;20341;-66
2022/11/22 01:11:01;;;;;;;;;13.00;10.50;;;;;19.95;50.68;99924.27;105732;1295;19543;-66
2022/11/22 01:13:28;;;;;;;;;8.00;8.00;;;;;19.96;50.48;99925.94;105635;1297;22172;-65
2022/11/22 01:15:56;;;;;;;;;11.00;8.00;;;;;19.96;50.69;99934.10;105656;1297;18831;-66
2022/11/22 01:18:23;;;;;;;;;10.50;10.50;;;;;19.96;50.41;99942.88;105696;1280;19212;-66
2022/11/22 01:20:50;;;;;;;;;8.00;8.00;;;;;19.97;50.75;99947.49;105688;1279;20165;-65
2022/11/22 01:23:18;;;;;;;;;14.00;10.00;;;;;19.96;50.53;99947.77;105720;1275;19944;-64
2022/11/22 01:25:46;;;;;;;;;10.00;10.00;;;;;19.96;50.56;99946.11;105714;1297;19658;-66
2022/11/22 01:28:13;;;;;;;;;;;;;;;19.96;50.55;99940.91;105700;1279;20032;-65
2022/11/22 01:30:40;;;;;;;;;11.00;11.00;;;;;19.95;50.33;99938.27;105660;1294;18234;-66
2022/11/22 01:33:08;;;;;;;;;14.00;11.00;;;;;19.95;50.48;99937.98;105672;1297;21112;-66
2022/11/22 01:35:35;;;;;;;;;14.00;9.00;;;;;19.95;50.38;99940.74;105702;1298;18979;-67
2022/11/22 01:38:03;;;;;;;;;8.00;8.00;;;;;19.95;50.43;99942.75;105697;1288;19755;-66
2022/11/22 01:40:30;;;;;;;;;8.00;8.00;;;;;19.95;50.22;99939.40;105692;1285;20749;-66
2022/11/22 01:42:58;;;;;;;;;11.00;10.00;;;;;19.95;50.52;99938.68;105658;1272;20440;-66
2022/11/22 01:45:25;;;;;;;;;10.00;9.00;;;;;19.94;50.33;99931.73;105677;1279;18554;-65
2022/11/22 01:47:53;;;;;;;;;10.00;7.00;;;;;19.94;50.48;99927.52;105685;1287;19312;-66
2022/11/22 01:50:20;;;;;;;;;10.00;8.00;;;;;19.94;50.37;99916.34;105725;1288;22894;-67
2022/11/22 01:52:47;;;;;;;;;7.50;7.50;;;;;19.94;50.24;99916.59;105743;1286;18759;-65
2022/11/22 01:55:15;;;;;;;;;8.00;7.00;;;;;19.95;50.30;99920.16;105718;1279;19934;-65
2022/11/22 01:57:42;;;;;;;;;10.00;8.00;;;;;19.94;50.06;99914.33;105686;1272;18406;-65
2022/11/22 02:00:10;;;;;;;;;8.00;8.00;;;;;19.93;50.29;99920.70;105703;1297;18557;-64
2022/11/22 02:02:37;;;;;;;;;10.50;10.50;;;;;19.93;50.36;99920.60;105716;1282;19672;-65
2022/11/22 02:05:05;;;;;;;;;7.00;7.00;;;;;19.92;50.36;99920.50;105689;1298;22611;-65
2022/11/22 02:07:32;;;;;;;;;10.00;8.00;;;;;19.94;50.23;99924.25;105613;1274;18529;-66
2022/11/22 02:09:59;;;;;;;;;7.00;7.00;;;;;19.94;50.22;99920.27;105725;1287;19640;-67
2022/11/22 02:12:27;;;;;;;;;12.00;8.00;;;;;19.93;50.30;99917.48;105676;1297;21068;-65
2022/11/22 02:14:54;;;;;;;;;10.00;10.00;;;;;19.94;50.06;99910.11;105707;1297;18581;-66
2022/11/22 02:17:22;;;;;;;;;12.00;11.00;;;;;19.93;50.29;99913.99;105698;1279;19506;-64
2022/11/22 02:19:49;;;;;;;;;11.00;8.00;;;;;19.93;50.40;99907.88;105696;1290;22677;-66
2022/11/22 02:22:17;;;;;;;;;10.00;10.00;;;;;19.94;50.18;99912.11;105674;1289;18608;-66
2022/11/22 02:24:44;;;;;;;;;14.00;10.50;;;;;19.94;50.09;99914.87;105692;1295;19567;-65
2022/11/22 02:27:12;;;;;;;;;9.00;7.50;;;;;19.93;50.35;99918.17;105690;1281;18550;-65
2022/11/22 02:29:39;;;;;;;;;;;;;;;19.93;50.03;99914.70;105692;1279;19933;-66
2022/11/22 02:32:07;;;;;;;;;9.00;9.00;;;;;19.93;50.05;99908.29;105682;1288;19229;-64
2022/11/22 02:34:34;;;;;;;;;12.00;10.00;;;;;19.93;50.04;99910.38;105627;1294;18414;-66
2022/11/22 02:37:01;;;;;;;;;12.00;11.00;;;;;19.92;50.00;99914.89;105528;1292;19917;-65
2022/11/22 02:39:29;;;;;;;;;11.00;10.00;;;;;19.92;50.22;99918.36;105691;1274;19442;-65
2022/11/22 02:41:56;;;;;;;;;10.00;10.00;;;;;19.91;50.14;99917.71;105635;1287;18547;-65
2022/11/22 02:44:24;;;;;;;;;9.00;7.00;;;;;19.91;50.15;99914.83;105643;1288;23687;-67
2022/11/22 02:46:51;;;;;;;;;7.00;7.00;;;;;19.90;50.14;99906.99;105754;1297;19338;-64
2022/11/22 02:49:19;;;;;;;;;7.00;7.00;;;;;19.91;49.99;99904.34;105700;1281;18613;-66
2022/11/22 02:51:46;;;;;;;;;11.00;8.00;;;;;19.92;49.92;99905.64;105721;1295;18484;-65
2022/11/22 02:54:14;;;;;;;;;9.00;7.50;;;;;19.92;49.97;99900.95;105680;1291;22938;-67
2022/11/22 02:56:42;;;;;;;;;9.00;8.00;;;;;19.92;49.86;99897.89;105676;1271;22574;-64
2022/11/22 02:59:09;;;;;;;;;6.00;5.00;;;;;19.91;50.09;99899.80;105693;1297;18490;-66
2022/11/22 03:01:36;;;;;;;;;7.50;7.50;;;;;19.90;49.98;99897.71;105710;1286;19787;-64
2022/11/22 03:04:04;;;;;;;;;10.00;9.00;;;;;19.90;49.80;99890.26;105660;1295;20857;-65
2022/11/22 03:06:31;;;;;;;;;10.00;8.00;;;;;19.92;50.00;99889.19;105650;1296;20269;-65
2022/11/22 03:08:59;;;;;;;;;10.00;10.00;;;;;19.91;50.05;99883.84;105623;1297;20868;-64
2022/11/22 03:11:26;;;;;;;;;8.00;8.00;;;;;19.91;49.89;99890.39;105671;1288;23296;-65
2022/11/22 03:13:54;;;;;;;;;11.00;8.00;;;;;19.90;50.09;99893.94;105715;1288;20055;-65
2022/11/22 03:16:21;;;;;;;;;10.50;10.00;;;;;19.91;49.84;99890.69;105695;1295;19326;-67
2022/11/22 03:18:48;;;;;;;;;7.00;7.00;;;;;19.90;50.07;99881.10;105638;1295;19119;-62
2022/11/22 03:21:16;;;;;;;;;9.00;9.00;;;;;19.89;49.96;99880.09;105681;1281;18570;-65
2022/11/22 03:23:43;;;;;;;;;7.00;7.00;;;;;19.90;49.80;99891.39;105681;1297;20464;-66
2022/11/22 03:26:11;;;;;;;;;;;;;;;19.90;49.67;99897.55;105685;1297;23896;-63
2022/11/22 03:28:38;;;;;;;;;11.00;10.00;;;;;19.90;49.79;99902.98;105672;1279;18379;-64
2022/11/22 03:31:06;;;;;;;;;9.00;9.00;;;;;19.91;49.72;99904.91;105694;1288;20623;-67
2022/11/22 03:33:33;;;;;;;;;10.00;9.00;;;;;19.91;49.79;99916.30;105683;1280;20197;-64
2022/11/22 03:36:01;;;;;;;;;10.50;8.00;;;;;19.90;49.74;99917.29;105646;1272;18570;-65
2022/11/22 03:38:29;;;;;;;;;8.00;8.00;;;;;19.89;49.88;99912.85;105667;1289;19372;-66
2022/11/22 03:40:56;;;;;;;;;8.00;8.00;;;;;19.90;49.58;99914.53;105711;1275;19967;-65
2022/11/22 03:43:24;;;;;;;;;11.00;11.00;;;;;19.90;49.68;99915.11;105642;1297;18729;-66
2022/11/22 03:45:51;;;;;;;;;7.50;7.00;;;;;19.90;49.78;99916.99;105656;1278;20675;-66
2022/11/22 03:48:18;;;;;;;;;;;;;;;19.90;49.64;99910.25;105711;1297;18718;-66
2022/11/22 03:50:46;;;;;;;;;10.00;10.00;;;;;19.90;49.77;99916.45;105704;1288;18918;-65
2022/11/22 03:53:13;;;;;;;;;8.00;7.50;;;;;19.88;49.70;99922.09;105712;1297;19455;-65
2022/11/22 03:55:41;;;;;;;;;7.00;7.00;;;;;19.90;49.63;99929.13;105703;1280;22683;-66
2022/11/22 03:58:08;;;;;;;;;11.50;9.00;;;;;19.90;49.61;99931.64;105687;1280;18822;-66
2022/11/22 04:00:35;;;;;;;;;7.00;7.00;;;;;19.90;49.54;99933.83;105681;1279;19474;-66
2022/11/22 04:03:03;;;;;;;;;10.00;8.00;;;;;19.89;49.49;99934.10;105712;1279;19884;-66
2022/11/22 04:05:30;;;;;;;;;11.00;10.00;;;;;19.89;49.53;99942.30;105706;1297;18742;-66
2022/11/22 04:07:58;;;;;;;;;5.00;5.00;;;;;19.89;49.59;99952.80;105712;1271;19302;-66
2022/11/22 04:10:25;;;;;;;;;8.00;7.50;;;;;19.89;49.75;99952.22;105702;1297;18856;-65
2022/11/22 04:12:53;;;;;;;;;7.00;7.00;;;;;19.88;49.57;99947.86;105697;1279;21302;-65
2022/11/22 04:15:20;;;;;;;;;5.00;5.00;;;;;19.87;49.58;99951.02;105685;1281;20853;-65
2022/11/22 04:17:47;;;;;;;;;8.00;8.00;;;;;19.88;49.80;99955.14;105658;1297;18551;-65
2022/11/22 04:23:00;;;;;;;;;9.00;8.00;;;;;19.88;49.45;99954.73;105716;1297;19762;-65
2022/11/22 04:25:28;;;;;;;;;7.50;7.00;;;;;19.88;49.43;99942.45;105671;1272;22378;-65
2022/11/22 04:27:55;;;;;;;;;12.50;10.50;;;;;19.87;49.53;99939.77;105637;1297;18923;-65
2022/11/22 04:32:44;;;;;;;;;10.00;8.00;;;;;19.87;49.58;99935.29;105716;1279;19329;-65
2022/11/22 04:33:11;;;;;;;;;8.00;7.00;;;;;19.88;49.64;99926.35;105706;1297;19364;-64
2022/11/22 04:35:38;;;;;;;;;7.00;7.00;;;;;19.86;49.45;99914.90;105710;1279;22605;-66
2022/11/22 04:38:06;;;;;;;;;10.00;10.00;;;;;19.86;49.54;99915.98;105727;1297;19402;-63
2022/11/22 04:40:33;;;;;;;;;7.00;5.00;;;;;19.86;49.27;99913.44;105668;1279;18554;-66
2022/11/22 04:45:46;;;;;;;;;10.00;7.00;;;;;19.88;49.55;99917.28;105701;1288;19316;-66
2022/11/22 04:48:13;;;;;;;;;7.00;7.00;;;;;19.87;49.64;99915.55;105676;1271;19032;-64
2022/11/22 04:53:26;;;;;;;;;8.00;7.00;;;;;19.88;49.32;99916.90;105690;1295;19329;-66
2022/11/22 04:55:53;;;;;;;;;8.00;8.00;;;;;19.88;49.28;99912.17;105728;1297;19886;-65
2022/11/22 04:58:21;;;;;;;;;7.00;5.00;;;;;19.88;49.19;99911.99;105697;1297;18538;-65
2022/11/22 05:00:48;;;;;;;;;7.00;5.00;;;;;19.87;49.43;99917.52;105661;1292;19255;-65
2022/11/22 05:03:16;;;;;;;;;5.00;5.00;;;;;19.88;49.38;99915.09;105721;1289;18432;-65
2022/11/22 05:05:43;;;;;;;;;8.00;7.00;;;;;19.87;49.33;99907.96;105661;1296;18545;-65
2022/11/22 05:08:10;;;;;;;;;7.00;5.00;;;;;19.86;49.17;99910.72;105721;1288;19530;-63
2022/11/22 05:13:19;;;;;;;;;8.00;8.00;;;;;19.87;49.33;99917.17;105665;1279;18475;-66
2022/11/22 05:15:47;;;;;;;;;7.00;7.00;;;;;19.86;49.13;99913.98;105673;1288;19333;-66
2022/11/22 05:18:14;;;;;;;;;4.50;4.00;;;;;19.85;49.13;99907.02;105686;1288;23316;-66
2022/11/22 05:20:42;;;;;;;;;7.00;7.00;;;;;19.87;49.23;99903.75;105676;1271;20064;-66
2022/11/22 05:25:54;;;;;;;;;8.00;7.00;;;;;19.86;49.38;99905.11;105701;1279;20763;-66
2022/11/22 05:28:22;;;;;;;;;7.00;5.00;;;;;19.87;49.22;99903.79;105667;1297;18421;-65
2022/11/22 05:30:49;;;;;;;;;7.00;7.00;;;;;19.86;49.17;99908.27;105683;1297;19316;-66
2022/11/22 05:33:16;;;;;;;;;5.00;5.00;;;;;19.87;49.06;99906.88;105600;1297;19910;-65
2022/11/22 05:35:44;;;;;;;;;8.00;7.00;;;;;19.86;49.05;99903.82;105722;1296;18682;-66
2022/11/22 05:38:11;;;;;;;;;8.00;6.00;;;;;19.87;49.29;99899.98;105755;1278;21521;-65
2022/11/22 05:40:39;;;;;;;;;7.00;5.00;;;;;19.86;48.87;99902.63;105703;1300;18444;-66
2022/11/22 05:43:06;;;;;;;;;7.50;7.00;;;;;19.86;49.10;99899.91;105666;1287;22753;-65
2022/11/22 05:45:34;;;;;;;;;7.00;7.00;;;;;19.86;49.18;99913.84;105708;1278;19355;-65
2022/11/22 05:48:01;;;;;;;;;8.00;7.00;;;;;19.85;49.27;99917.53;105670;1292;18451;-66
2022/11/22 05:50:28;;;;;;;;;8.00;5.00;;;;;19.86;49.16;99927.11;105739;1289;18707;-67
2022/11/22 05:52:56;;;;;;;;;8.00;7.00;;;;;19.86;49.03;99938.15;105736;1290;20805;-65
2022/11/22 05:55:23;;;;;;;;;7.00;6.00;;;;;19.86;49.11;99951.67;105658;1297;22214;-63
2022/11/22 05:57:51;;;;;;;;;7.00;7.00;;;;;19.86;49.07;99952.25;105658;1279;18611;-65
2022/11/22 06:00:18;;;;;;;;;7.00;7.00;;;;;19.85;49.11;99946.26;105700;1297;26611;-66
2022/11/22 06:02:46;;;;;;;;;10.00;7.00;;;;;19.85;49.11;99957.06;105604;1281;18768;-64
2022/11/22 06:05:13;;;;;;;;;7.00;5.00;;;;;19.83;49.19;99963.31;105719;1288;20060;-65
2022/11/22 06:07:40;;;;;;;;;4.00;4.00;;;;;19.83;49.10;99964.61;105720;1295;21956;-66
2022/11/22 06:10:08;;;;;;;;;6.00;5.00;;;;;19.83;49.17;99968.92;105695;1279;19646;-65
2022/11/22 06:12:35;;;;;;;;;4.00;4.00;;;;;19.83;48.97;99977.70;105666;1288;18605;-65
2022/11/22 06:15:03;;;;;;;;;10.00;8.00;;;;;19.83;48.96;99979.79;105647;1279;19145;-65
2022/11/22 06:17:30;;;;;;;;;5.00;5.00;;;;;19.83;48.95;99968.83;105655;1295;18891;-65
2022/11/22 06:19:58;;;;;;;;;5.00;4.00;;;;;19.83;48.89;99970.63;105701;1302;22194;-63
2022/11/22 06:22:25;;;;;;;;;5.00;5.00;;;;;19.84;48.90;99971.43;105707;1300;19425;-64
2022/11/22 06:24:53;;;;;;;;;8.00;7.00;;;;;19.83;48.75;99969.50;105714;1297;20418;-66
2022/11/22 06:27:20;;;;;;;;;6.50;6.00;;;;;19.83;48.95;99966.11;105711;1297;22769;-66
2022/11/22 06:29:48;;;;;;;;;7.00;5.00;;;;;19.83;49.14;99965.73;105659;1289;21408;-65
2022/11/22 06:32:15;;;;;;;;;8.00;7.00;;;;;19.83;48.78;99965.73;105740;1297;19253;-64
2022/11/22 06:34:43;;;;;;;;;10.00;7.00;;;;;19.83;48.85;99960.84;105714;1279;18473;-66
2022/11/22 06:37:11;;;;;;;;;8.00;5.00;;;;;19.82;48.90;99954.02;105681;1294;20936;-66
2022/11/22 06:39:38;;;;;;;;;9.00;7.50;;;;;19.82;49.10;99949.49;105686;1287;22288;-64
2022/11/22 06:42:05;;;;;;;;;6.00;6.00;;;;;19.82;48.83;99948.07;105697;1295;18432;-66
2022/11/22 06:44:34;;;;;;;;;8.00;8.00;;;;;19.82;48.89;99951.87;105705;1297;22339;-65
2022/11/22 06:47:01;;;;;;;;;7.00;5.00;;;;;19.82;49.08;99958.23;105768;1271;19618;-65
2022/11/22 06:49:29;;;;;;;;;11.50;8.00;;;;;19.82;48.90;99958.61;105707;1295;21200;-66
2022/11/22 06:51:56;;;;;;;;;5.00;5.00;;;;;19.83;48.83;99966.78;105679;1300;23035;-66
2022/11/22 06:54:24;;;;;;;;;5.00;4.00;;;;;19.82;49.08;99971.59;105687;1298;18458;-66
2022/11/22 06:56:51;;;;;;;;;;;;;;;19.82;48.85;99983.38;105707;1286;19977;-65
2022/11/22 06:59:19;;;;;;;;;7.00;7.00;;;;;19.82;48.82;99986.86;105718;1297;19345;-63
2022/11/22 07:01:46;;;;;;;;;5.00;5.00;;;;;19.83;48.71;99998.49;105669;1297;19216;-65
2022/11/22 07:04:14;;;;;;;;;7.00;7.00;;;;;19.82;48.92;100006.27;105681;1297;18932;-67
2022/11/22 07:06:43;;;;;;;;;7.00;5.00;;;;;19.82;48.79;100004.63;105695;1301;21555;-64
2022/11/22 07:09:10;;;;;;;;;7.00;5.00;;;;;19.82;48.65;100010.58;105670;1288;22433;-66
2022/11/22 07:11:37;;;;;;;;;7.50;7.00;;;;;19.82;48.79;100014.41;105691;1297;18510;-64
2022/11/22 07:14:05;;;;;;;;;6.50;6.00;;;;;19.81;48.92;100010.69;105716;1291;19367;-63
2022/11/22 07:16:32;;;;;;;;;4.00;4.00;;;;;19.83;48.77;100005.98;105700;1281;22683;-65
2022/11/22 07:19:00;;;;;;;;;6.00;5.00;;;;;19.82;49.08;100001.75;105683;1288;22154;-66
2022/11/22 07:21:27;;;;;;;;;6.00;6.00;;;;;19.82;48.86;100001.54;105670;1279;19323;-67
2022/11/22 07:23:55;;;;;;;;;5.00;5.00;;;;;19.81;48.86;99996.21;105689;1287;22763;-64
2022/11/22 07:26:22;;;;;;;;;7.00;5.00;;;;;19.82;48.91;100000.98;105732;1271;18545;-66
2022/11/22 07:28:50;;;;;;;;;4.00;4.00;;;;;19.82;48.80;100002.63;105710;1301;20515;-65
2022/11/22 07:31:17;;;;;;;;;5.00;5.00;;;;;19.83;48.83;99999.45;105700;1279;18541;-65
2022/11/22 07:33:45;;;;;;;;;4.50;4.50;;;;;19.82;48.96;100004.23;105697;1279;19000;-64
2022/11/22 07:36:12;;;;;;;;;7.00;5.00;;;;;19.84;49.01;99998.59;105616;1272;19745;-62
2022/11/22 07:38:40;;;;;;;;;5.00;5.00;;;;;19.87;49.28;99988.84;105625;1279;24000;-64
2022/11/22 07:41:07;;;;;;;;;7.00;7.00;;;;;19.89;49.24;99986.36;105648;1279;18525;-62
2022/11/22 07:43:35;;;;;;;;;4.00;4.00;;;;;19.90;50.00;99984.90;105649;1271;21170;-65
2022/11/22 07:46:02;;;;;;;;;5.00;5.00;;;;;19.93;50.43;99979.27;105600;1298;19506;-63
2022/11/22 07:48:30;;;;;;;;;8.00;8.00;;;;;19.94;51.04;99977.60;105561;1274;20323;-65
2022/11/22 07:50:57;;;;;;;;;7.00;5.00;;;;;19.95;51.26;99979.95;105606;1299;19860;-65
2022/11/22 07:53:24;;;;;;;;;10.00;8.00;;;;;19.95;51.25;99981.21;105631;1281;23805;-65
2022/11/22 07:55:52;;;;;;;;;7.00;6.00;;;;;19.95;51.33;99976.65;105633;1297;20206;-67
2022/11/22 07:58:19;;;;;;;;;8.00;6.00;;;;;19.97;52.06;99982.09;105654;1297;19303;-63
2022/11/22 08:00:47;;;;;;;;;8.00;8.00;;;;;19.97;52.16;99984.78;105616;1288;19599;-62
2022/11/22 08:03:14;;;;;;;;;8.00;7.50;;;;;20.00;51.86;99993.78;105612;1280;18667;-66
2022/11/22 08:05:42;;;;;;;;;8.00;8.00;;;;;20.04;51.52;99993.20;105658;1297;19288;-64
2022/11/22 08:08:10;;;;;;;;;9.50;8.00;;;;;20.09;51.08;99994.05;105692;1297;18494;-64
2022/11/22 08:10:37;;;;;;;;;10.00;10.00;;;;;20.11;51.24;99988.35;105614;1295;20715;-63
2022/11/22 08:13:06;;;;;;;;;7.00;7.00;;;;;20.12;51.30;99990.23;105598;1279;19339;-65
2022/11/22 08:15:33;;;;;;;;;7.00;7.00;;;;;20.11;51.25;99986.89;105629;1279;18890;-63
2022/11/22 08:18:00;;;;;;;;;9.00;8.00;;;;;20.11;51.29;99989.40;105648;1288;22673;-66
2022/11/22 08:20:28;;;;;;;;;7.00;7.00;;;;;20.10;51.25;99983.56;105667;1286;19467;-64
2022/11/22 08:22:55;;;;;;;;;11.50;7.50;;;;;20.11;51.11;99981.62;105660;1296;19471;-63
2022/11/22 08:25:23;;;;;;;;;11.50;7.00;;;;;20.12;51.11;99983.52;105651;1291;20113;-64
2022/11/22 08:27:50;;;;;;;;;7.00;7.00;;;;;20.10;51.07;99997.03;105624;1278;19362;-64
2022/11/22 08:30:18;;;;;;;;;8.00;7.00;;;;;20.09;51.10;100005.95;105652;1275;19964;-64
2022/11/22 08:32:45;;;;;;;;;8.00;7.50;;;;;20.10;50.97;100012.03;105693;1294;21534;-63
2022/11/22 08:35:14;;;;;;;;;7.00;7.00;;;;;20.09;51.10;100014.35;105689;1297;19484;-65
2022/11/22 08:37:41;;;;;;;;;;;;;;;20.08;50.97;100013.50;105673;1295;19581;-64
2022/11/22 08:40:08;;;;;;;;;7.50;6.00;;;;;20.09;51.05;100017.98;105658;1288;20979;-62
2022/11/22 08:42:36;;;;;;;;;7.00;7.00;;;;;20.09;50.94;100021.63;105637;1279;21601;-62
2022/11/22 08:45:04;;;;;;;;;8.00;5.00;;;;;20.09;50.77;100027.98;105665;1288;22659;-65
2022/11/22 08:47:31;;;;;;;;;7.00;7.00;;;;;20.08;50.91;100031.70;105649;1272;22940;-66
2022/11/22 08:49:59;;;;;;;;;7.67;7.67;;;;;20.08;50.95;100039.83;105682;1298;19499;-63
2022/11/22 08:52:27;;;;;;;;;7.00;6.00;;;;;20.10;50.89;100047.09;105661;1286;23056;-64
2022/11/22 08:54:54;;;;;;;;;11.00;11.00;;;;;20.09;51.07;100043.80;105668;1271;20295;-64
2022/11/22 08:57:22;;;;;;;;;8.00;8.00;;;;;20.08;51.01;100047.66;105643;1272;19544;-65
2022/11/22 08:59:49;;;;;;;;;10.00;8.00;;;;;20.08;50.73;100043.17;105640;1297;22647;-64
2022/11/22 09:02:16;;;;;;;;;11.00;8.00;;;;;20.09;50.74;100042.98;105740;1297;18532;-64
2022/11/22 09:04:44;;;;;;;;;8.00;7.00;;;;;20.09;50.81;100049.38;105668;1281;20739;-65
2022/11/22 09:07:12;;;;;;;;;7.00;7.00;;;;;20.09;50.61;100046.61;105653;1279;20304;-63
2022/11/22 09:09:39;;;;;;;;;6.50;6.00;;;;;20.09;50.74;100047.29;105629;1275;20287;-63
2022/11/22 09:12:07;;;;;;;;;10.00;8.00;;;;;20.09;50.70;100045.91;105688;1279;19317;-63
2022/11/22 09:14:35;;;;;;;;;8.00;7.50;;;;;20.07;50.53;100050.40;105672;1279;18550;-65
2022/11/22 09:17:02;;;;;;;;;7.50;7.50;;;;;20.05;50.62;100047.02;105610;1297;18682;-66
2022/11/22 09:19:29;;;;;;;;;7.00;7.00;;;;;20.05;50.43;100045.14;105649;1274;20809;-64
2022/11/22 09:21:57;;;;;;;;;6.00;5.00;;;;;20.08;50.34;100045.39;105697;1287;19670;-67
2022/11/22 09:24:24;;;;;;;;;7.00;6.00;;;;;20.13;50.30;100047.89;105669;1279;18730;-66
2022/11/22 09:26:52;;;;;;;;;5.00;5.00;;;;;20.14;50.10;100049.65;105698;1297;20736;-66
2022/11/22 09:29:19;;;;;;;;;9.00;8.00;;;;;20.13;50.08;100060.23;105691;1293;18469;-66
2022/11/22 09:31:47;;;;;;;;;8.00;7.00;;;;;20.12;49.90;100056.84;105600;1279;20980;-66
2022/11/22 09:34:14;;;;;;;;;5.00;5.00;;;;;20.11;49.91;100056.33;105628;1272;19560;-64
2022/11/22 09:36:42;;;;;;;;;9.00;8.00;;;;;20.11;49.90;100058.55;105632;1294;19014;-64
2022/11/22 09:39:09;;;;;;;;;8.00;7.00;;;;;20.10;50.00;100054.47;105681;1297;18879;-65
2022/11/22 09:41:38;;;;;;;;;8.50;7.50;;;;;20.11;50.00;100046.73;105717;1297;21730;-64
2022/11/22 09:44:06;;;;;;;;;8.00;7.00;;;;;20.10;49.95;100042.70;105772;1295;18360;-63
2022/11/22 09:46:33;;;;;;;;;11.00;9.00;;;;;20.10;50.10;100041.06;105703;1295;18540;-66
2022/11/22 09:49:01;;;;;;;;;8.00;5.00;;;;;20.10;50.00;100032.02;105650;1279;19582;-64
2022/11/22 09:51:28;;;;;;;;;7.00;6.00;;;;;20.11;50.28;100032.56;105632;1271;18952;-66
2022/11/22 09:53:56;;;;;;;;;;;;;;;20.11;50.36;100025.52;105678;1271;18669;-65
2022/11/22 09:56:24;;;;;;;;;7.00;5.00;;;;;20.12;50.66;100031.27;105687;1288;23916;-67
2022/11/22 09:58:51;;;;;;;;;8.50;7.50;;;;;20.13;50.90;100029.27;105680;1291;21337;-65
2022/11/22 10:01:19;;;;;;;;;5.00;5.00;;;;;20.13;50.27;100026.96;105703;1295;18728;-66
2022/11/22 10:03:46;;;;;;;;;7.50;7.50;;;;;20.13;50.82;100031.48;105658;1272;21101;-66
2022/11/22 10:06:13;;;;;;;;;7.00;7.00;;;;;20.13;50.73;100029.05;105580;1279;22770;-66
2022/11/22 10:08:41;;;;;;;;;7.00;6.00;;;;;20.15;50.92;100026.61;105666;1279;18513;-65
2022/11/22 10:11:08;;;;;;;;;8.00;7.00;;;;;20.16;50.99;100028.88;105713;1279;19488;-67
2022/11/22 10:13:36;;;;;;;;;;;;;;;20.15;51.14;100031.23;105592;1290;19721;-66
2022/11/22 10:16:03;;;;;;;;;8.00;8.00;;;;;20.13;50.91;100030.69;105558;1279;18413;-67
2022/11/22 10:18:31;;;;;;;;;7.00;7.00;;;;;20.14;50.89;100022.65;105659;1279;19293;-67
2022/11/22 10:20:58;;;;;;;;;10.00;5.00;;;;;20.14;50.77;100017.14;105672;1274;18389;-67
2022/11/22 10:23:26;;;;;;;;;8.00;5.00;;;;;20.13;51.14;100011.81;105679;1288;22085;-66
2022/11/22 10:25:53;;;;;;;;;7.00;7.00;;;;;20.14;51.05;100011.73;105678;1279;20927;-67
2022/11/22 10:28:21;;;;;;;;;8.00;7.00;;;;;20.15;51.06;100014.09;105643;1280;18568;-66
2022/11/22 10:30:49;;;;;;;;;7.00;7.00;;;;;20.15;50.95;100011.21;105671;1272;22622;-64
2022/11/22 10:33:17;;;;;;;;;8.00;7.00;;;;;20.15;51.20;100012.83;105618;1272;19604;-64
2022/11/22 10:35:44;;;;;;;;;9.00;8.00;;;;;20.13;50.91;100015.66;105646;1279;19673;-65
2022/11/22 10:38:12;;;;;;;;;17.50;15.00;;;;;20.06;50.39;100006.41;105670;1271;20946;-67
2022/11/22 10:40:39;;;;;;;;;22.00;18.00;;;;;19.99;49.53;100005.82;105619;1280;20967;-62
2022/11/22 10:43:07;;;;;;;;;17.33;16.33;;;;;19.92;48.54;99996.27;105646;1289;20555;-64
2022/11/22 10:45:35;;;;;;;;;20.50;18.00;;;;;19.90;47.82;99990.89;105635;1272;21912;-65
2022/11/22 10:48:02;;;;;;;;;18.00;16.33;;;;;19.92;47.47;99986.52;105621;1279;22607;-66
2022/11/22 10:50:30;;;;;;;;;14.00;12.50;;;;;19.98;47.78;99987.36;105612;1297;18536;-65
2022/11/22 10:52:57;;;;;;;;;17.50;12.00;;;;;20.04;48.09;99984.48;105672;1280;18618;-67
2022/11/22 10:55:25;;;;;;;;;15.00;12.00;;;;;20.09;48.22;99973.55;105739;1282;19378;-64
2022/11/22 10:57:53;;;;;;;;;11.00;11.00;;;;;20.11;48.50;99964.41;105664;1296;20161;-64
2022/11/22 11:00:20;;;;;;;;;14.00;13.00;;;;;20.13;48.64;99965.27;105607;1272;20560;-64
2022/11/22 11:02:48;;;;;;;;;13.00;11.50;;;;;20.14;48.93;99955.56;105613;1271;19322;-62
2022/11/22 11:05:15;;;;;;;;;13.00;11.00;;;;;20.16;48.99;99951.08;105674;1297;19987;-68
2022/11/22 11:07:42;;;;;;;;;9.00;8.00;;;;;20.15;49.08;99948.42;105647;1296;18877;-65
2022/11/22 11:10:15;;;;;;;;;14.00;14.00;;;;;20.13;49.18;99949.41;105637;1288;20751;-64
2022/11/22 11:12:43;;;;;;;;;7.33;6.33;;;;;20.12;49.28;99940.90;105582;1279;18503;-66
2022/11/22 11:15:10;;;;;;;;;5.00;5.00;;;;;20.12;49.15;99940.52;105615;1279;18910;-62
2022/11/22 11:17:39;;;;;;;;;8.00;7.00;;;;;20.13;49.07;99941.45;105635;1271;21274;-63
2022/11/22 11:20:06;;;;;;;;;8.00;8.00;;;;;20.13;49.19;99944.55;105713;1289;18455;-65
2022/11/22 11:22:33;;;;;;;;;8.50;7.50;;;;;20.13;49.21;99945.67;105635;1280;20074;-63
2022/11/22 11:25:01;;;;;;;;;7.50;7.50;;;;;20.12;49.17;99948.39;105632;1279;22416;-64
2022/11/22 11:27:28;;;;;;;;;11.00;9.00;;;;;20.12;48.83;99952.28;105617;1295;18580;-64
2022/11/22 11:29:56;;;;;;;;;12.00;8.00;;;;;20.12;48.93;99954.54;105631;1295;18748;-64
2022/11/22 11:32:23;;;;;;;;;11.00;9.00;;;;;20.13;49.19;99962.51;105701;1296;19291;-66
2022/11/22 11:34:51;;;;;;;;;8.00;7.00;;;;;20.15;49.21;99961.32;105674;1271;18812;-65
2022/11/22 11:37:19;;;;;;;;;9.00;8.00;;;;;20.17;49.05;99958.33;105593;1287;19771;-63